createdAt,value
2018-06-11T00:01:39.941Z,99212.60
2018-06-11T00:04:07.954Z,99203.43
2018-06-11T00:06:35.967Z,99211.83
2018-06-11T00:09:06.940Z,99207.25
2018-06-11T00:11:35.158Z,99211.83
2018-06-11T00:14:03.225Z,99208.50
2018-06-11T00:16:31.220Z,99200.10
2018-06-11T00:18:59.313Z,99201.91
2018-06-11T00:21:27.985Z,99203.75
2018-06-11T00:23:56.232Z,99205.53
2018-06-11T00:26:24.764Z,99203.45
2018-06-11T00:28:53.072Z,99200.89
2018-06-11T00:31:21.639Z,99200.03
2018-06-11T00:33:50.898Z,99197.14
2018-06-11T00:36:19.372Z,99199.59
2018-06-11T00:38:47.769Z,99199.44
2018-06-11T00:41:16.319Z,99198.63
2018-06-11T00:43:44.598Z,99199.25
2018-06-11T00:46:12.985Z,99198.91
2018-06-11T00:48:41.460Z,99202.02
2018-06-11T00:51:09.933Z,99193.27
2018-06-11T00:53:38.465Z,99202.42
2018-06-11T00:56:07.953Z,99203.15
2018-06-11T00:58:36.418Z,99206.51
2018-06-11T01:01:04.885Z,99200.48
2018-06-11T01:03:33.374Z,99195.16
2018-06-11T01:06:01.610Z,99194.55
2018-06-11T01:08:29.595Z,99193.51
2018-06-11T01:10:57.535Z,99189.52
2018-06-11T01:13:26.882Z,99190.84
2018-06-11T01:15:55.160Z,99188.63
2018-06-11T01:18:23.707Z,99178.73
2018-06-11T01:20:52.138Z,99181.16
2018-06-11T01:23:20.722Z,99182.09
2018-06-11T01:25:49.025Z,99183.14
2018-06-11T01:28:17.453Z,99186.09
2018-06-11T01:30:45.759Z,99186.81
2018-06-11T01:33:14.369Z,99189.79
2018-06-11T01:35:42.909Z,99185.97
2018-06-11T01:38:11.239Z,99189.92
2018-06-11T01:40:39.615Z,99197.05
2018-06-11T01:43:07.950Z,99189.80
2018-06-11T01:45:36.558Z,99192.03
2018-06-11T01:48:05.048Z,99193.81
2018-06-11T01:50:33.533Z,99199.25
2018-06-11T01:53:02.029Z,99197.18
2018-06-11T01:55:30.464Z,99194.91
2018-06-11T01:57:58.617Z,99196.13
2018-06-11T02:00:27.265Z,99200.33
2018-06-11T02:02:55.928Z,99194.61
2018-06-11T02:05:24.390Z,99197.02
2018-06-11T02:07:52.329Z,99195.47
2018-06-11T02:10:20.891Z,99199.08
2018-06-11T02:12:48.834Z,99195.51
2018-06-11T02:15:18.342Z,99204.02
2018-06-11T02:17:46.585Z,99199.10
2018-06-11T02:20:15.071Z,99197.08
2018-06-11T02:22:43.550Z,99192.23
2018-06-11T02:25:12.010Z,99193.22
2018-06-11T02:27:40.436Z,99194.64
2018-06-11T02:30:09.098Z,99193.78
2018-06-11T02:32:37.454Z,99196.72
2018-06-11T02:35:05.850Z,99191.69
2018-06-11T02:37:33.914Z,99194.25
2018-06-11T02:40:02.200Z,99194.05
2018-06-11T02:42:30.633Z,99198.41
2018-06-11T02:44:58.987Z,99207.84
2018-06-11T02:47:27.370Z,99209.59
2018-06-11T02:49:55.965Z,99216.70
2018-06-11T02:52:24.314Z,99209.64
2018-06-11T02:54:52.749Z,99210.73
2018-06-11T02:57:21.223Z,99210.83
2018-06-11T02:59:49.646Z,99215.52
2018-06-11T03:02:18.137Z,99213.18
2018-06-11T03:04:46.893Z,99213.28
2018-06-11T03:07:15.218Z,99216.91
2018-06-11T03:09:43.756Z,99215.72
2018-06-11T03:12:13.133Z,99219.93
2018-06-11T03:14:41.457Z,99213.16
2018-06-11T03:17:09.965Z,99220.12
2018-06-11T03:19:38.470Z,99221.08
2018-06-11T03:22:06.989Z,99219.14
2018-06-11T03:24:35.322Z,99215.78
2018-06-11T03:27:03.774Z,99222.11
2018-06-11T03:29:32.596Z,99219.63
2018-06-11T03:32:01.130Z,99222.34
2018-06-11T03:34:30.501Z,99222.55
2018-06-11T03:36:58.974Z,99221.64
2018-06-11T03:39:27.494Z,99218.47
2018-06-11T03:41:55.815Z,99223.87
2018-06-11T03:44:24.309Z,99222.38
2018-06-11T03:46:52.230Z,99223.08
2018-06-11T03:49:20.622Z,99223.17
2018-06-11T03:51:50.037Z,99230.07
2018-06-11T03:54:18.504Z,99225.74
2018-06-11T03:56:46.973Z,99227.44
2018-06-11T03:59:15.480Z,99236.75
2018-06-11T04:01:43.937Z,99241.31
2018-06-11T04:04:12.261Z,99240.13
2018-06-11T04:06:40.742Z,99241.02
2018-06-11T04:09:08.873Z,99238.56
2018-06-11T04:11:37.543Z,99240.33
2018-06-11T04:14:06.045Z,99247.77
2018-06-11T04:16:34.081Z,99249.72
2018-06-11T04:19:02.541Z,99248.81
2018-06-11T04:21:30.878Z,99255.05
2018-06-11T04:23:59.453Z,99255.47
2018-06-11T04:26:27.867Z,99251.90
2018-06-11T04:28:56.213Z,99256.70
2018-06-11T04:31:24.520Z,99253.81
2018-06-11T04:33:52.902Z,99257.58
2018-06-11T04:36:21.300Z,99258.12
2018-06-11T04:38:49.525Z,99264.34
2018-06-11T04:41:18.195Z,99262.08
2018-06-11T04:43:46.770Z,99260.74
2018-06-11T04:46:15.270Z,99268.77
2018-06-11T04:48:43.834Z,99270.53
2018-06-11T04:51:12.567Z,99270.23
2018-06-11T04:53:41.255Z,99276.67
2018-06-11T04:56:09.745Z,99270.26
2018-06-11T04:58:38.310Z,99273.00
2018-06-11T05:01:06.922Z,99280.23
2018-06-11T05:03:36.030Z,99277.11
2018-06-11T05:06:04.370Z,99281.05
2018-06-11T05:08:32.850Z,99277.98
2018-06-11T05:11:00.854Z,99277.33
2018-06-11T05:13:29.325Z,99283.38
2018-06-11T05:15:58.383Z,99289.41
2018-06-11T05:18:26.661Z,99295.86
2018-06-11T05:20:55.282Z,99298.83
2018-06-11T05:23:23.733Z,99298.31
2018-06-11T05:25:51.673Z,99299.72
2018-06-11T05:28:20.131Z,99295.61
2018-06-11T05:30:48.605Z,99299.80
2018-06-11T05:33:17.166Z,99298.49
2018-06-11T05:35:45.802Z,99300.14
2018-06-11T05:38:14.344Z,99304.10
2018-06-11T05:40:43.079Z,99305.84
2018-06-11T05:43:11.286Z,99303.59
2018-06-11T05:45:39.606Z,99310.66
2018-06-11T05:48:08.055Z,99303.39
2018-06-11T05:50:36.485Z,99308.09
2018-06-11T05:53:05.009Z,99311.31
2018-06-11T05:55:33.601Z,99321.05
2018-06-11T05:58:02.166Z,99324.22
2018-06-11T06:00:30.654Z,99320.25
2018-06-11T06:02:59.178Z,99323.92
2018-06-11T06:05:27.400Z,99326.34
2018-06-11T06:07:55.918Z,99329.76
2018-06-11T06:10:24.426Z,99325.06
2018-06-11T06:12:52.945Z,99324.72
2018-06-11T06:15:21.233Z,99328.38
2018-06-11T06:17:52.781Z,99326.61
2018-06-11T06:20:21.265Z,99333.00
2018-06-11T06:22:49.842Z,99324.98
2018-06-11T06:25:18.386Z,99327.16
2018-06-11T06:27:46.934Z,99325.34
2018-06-11T06:30:15.495Z,99332.56
2018-06-11T06:32:43.979Z,99325.69
2018-06-11T06:35:13.032Z,99326.86
2018-06-11T06:37:41.082Z,99322.32
2018-06-11T06:40:09.079Z,99318.45
2018-06-11T06:42:37.490Z,99314.45
2018-06-11T06:45:05.888Z,99323.34
2018-06-11T06:47:34.466Z,99318.28
2018-06-11T06:50:03.050Z,99325.69
2018-06-11T06:52:31.427Z,99322.98
2018-06-11T06:54:59.931Z,99327.84
2018-06-11T06:57:28.291Z,99329.03
2018-06-11T06:59:59.327Z,99325.34
2018-06-11T07:02:27.953Z,99324.48
2018-06-11T07:04:57.121Z,99323.44
2018-06-11T07:07:26.216Z,99328.17
2018-06-11T07:09:54.302Z,99328.63
2018-06-11T07:12:22.726Z,99318.58
2018-06-11T07:14:50.768Z,99316.70
2018-06-11T07:17:19.263Z,99317.98
2018-06-11T07:19:47.681Z,99321.01
2018-06-11T07:22:16.058Z,99315.07
2018-06-11T07:24:44.632Z,99316.20
2018-06-11T07:27:13.094Z,99316.70
2018-06-11T07:29:41.622Z,99317.61
2018-06-11T07:32:09.583Z,99316.45
2018-06-11T07:34:38.208Z,99310.45
2018-06-11T07:37:06.190Z,99314.57
2018-06-11T07:39:34.660Z,99310.31
2018-06-11T07:42:03.232Z,99311.34
2018-06-11T07:44:31.554Z,99313.41
2018-06-11T07:47:00.231Z,99315.11
2018-06-11T07:49:28.853Z,99314.86
2018-06-11T07:51:57.571Z,99315.63
2018-06-11T07:54:25.969Z,99314.67
2018-06-11T07:56:54.401Z,99313.88
2018-06-11T07:59:22.991Z,99308.39
2018-06-11T08:01:51.545Z,99316.31
2018-06-11T08:04:20.298Z,99316.07
2018-06-11T08:06:48.856Z,99313.85
2018-06-11T08:09:17.351Z,99315.23
2018-06-11T08:11:45.924Z,99303.31
2018-06-11T08:14:14.510Z,99312.84
2018-06-11T08:16:43.072Z,99315.95
2018-06-11T08:19:11.472Z,99311.52
2018-06-11T08:21:39.932Z,99310.99
2018-06-11T08:24:08.443Z,99307.58
2018-06-11T08:26:37.102Z,99304.06
2018-06-11T08:29:08.611Z,99305.06
2018-06-11T08:31:37.534Z,99306.53
2018-06-11T08:34:06.190Z,99300.09
2018-06-11T08:36:34.646Z,99303.58
2018-06-11T08:39:03.570Z,99301.31
2018-06-11T08:41:32.208Z,99308.36
2018-06-11T08:44:00.637Z,99307.56
2018-06-11T08:46:29.246Z,99303.25
2018-06-11T08:48:57.738Z,99304.75
2018-06-11T08:51:26.130Z,99299.78
2018-06-11T08:53:54.612Z,99306.67
2018-06-11T08:56:22.977Z,99306.70
2018-06-11T08:58:51.597Z,99306.70
2018-06-11T09:01:21.284Z,99296.30
2018-06-11T09:03:49.857Z,99297.72
2018-06-11T09:06:18.349Z,99298.13
2018-06-11T09:08:46.788Z,99297.99
2018-06-11T09:11:15.290Z,99298.13
2018-06-11T09:13:43.695Z,99291.05
2018-06-11T09:16:12.107Z,99295.72
2018-06-11T09:18:40.437Z,99290.77
2018-06-11T09:21:09.015Z,99287.29
2018-06-11T09:23:37.420Z,99281.09
2018-06-11T09:26:05.797Z,99283.30
2018-06-11T09:28:34.177Z,99287.30
2018-06-11T09:31:02.809Z,99284.02
2018-06-11T09:33:31.528Z,99286.78
2018-06-11T09:35:59.968Z,99283.72
2018-06-11T09:38:28.273Z,99279.77
2018-06-11T09:40:56.485Z,99281.20
2018-06-11T09:43:25.125Z,99278.30
2018-06-11T09:45:53.448Z,99276.02
2018-06-11T09:48:22.662Z,99271.46
2018-06-11T09:50:51.107Z,99273.83
2018-06-11T09:53:19.647Z,99276.56
2018-06-11T09:55:48.075Z,99267.23
2018-06-11T09:58:16.773Z,99268.84
2018-06-11T10:00:45.294Z,99266.60
2018-06-11T10:03:13.953Z,99268.66
2018-06-11T10:05:42.368Z,99270.91
2018-06-11T10:08:10.998Z,99270.36
2018-06-11T10:10:39.490Z,99264.25
2018-06-11T10:13:08.101Z,99267.09
2018-06-11T10:15:36.515Z,99261.68
2018-06-11T10:18:04.912Z,99264.42
2018-06-11T10:20:33.474Z,99260.88
2018-06-11T10:23:15.165Z,99257.96
2018-06-11T10:25:43.719Z,99261.33
2018-06-11T10:28:12.224Z,99266.49
2018-06-11T10:30:41.313Z,99270.62
2018-06-11T10:33:09.852Z,99262.38
2018-06-11T10:35:38.304Z,99262.99
2018-06-11T10:38:06.761Z,99256.11
2018-06-11T10:40:35.254Z,99260.53
2018-06-11T10:43:03.783Z,99253.14
2018-06-11T10:45:32.345Z,99254.91
2018-06-11T10:48:00.839Z,99253.77
2018-06-11T10:50:30.117Z,99255.03
2018-06-11T10:52:58.435Z,99251.36
2018-06-11T10:55:28.801Z,99250.55
2018-06-11T10:58:02.225Z,99242.56
2018-06-11T11:00:33.353Z,99239.53
2018-06-11T11:03:01.782Z,99245.11
2018-06-11T11:05:30.044Z,99237.78
2018-06-11T11:07:58.449Z,99239.08
2018-06-11T11:10:26.996Z,99228.77
2018-06-11T11:12:55.489Z,99223.31
2018-06-11T11:15:23.753Z,99227.91
2018-06-11T11:17:52.331Z,99225.13
2018-06-11T11:20:20.928Z,99221.14
2018-06-11T11:22:49.301Z,99220.56
2018-06-11T11:25:17.561Z,99217.65
2018-06-11T11:27:46.694Z,99217.63
2018-06-11T11:30:15.144Z,99203.05
2018-06-11T11:32:43.738Z,99208.52
2018-06-11T11:35:12.201Z,99206.16
2018-06-11T11:37:40.714Z,99202.61
2018-06-11T11:40:09.294Z,99201.44
2018-06-11T11:42:37.561Z,99197.77
2018-06-11T11:45:06.071Z,99201.55
2018-06-11T11:47:34.590Z,99190.81
2018-06-11T11:50:02.949Z,99188.34
2018-06-11T11:52:31.474Z,99184.13
2018-06-11T11:54:59.943Z,99194.38
2018-06-11T11:57:28.457Z,99189.45
2018-06-11T11:59:56.946Z,99193.59
2018-06-11T12:02:25.268Z,99195.42
2018-06-11T12:04:53.790Z,99195.53
2018-06-11T12:07:22.239Z,99183.05
2018-06-11T12:09:50.664Z,99176.66
2018-06-11T12:12:19.326Z,99178.33
2018-06-11T12:14:47.603Z,99165.55
2018-06-11T12:17:16.092Z,99168.88
2018-06-11T12:19:44.578Z,99159.60
2018-06-11T12:22:12.946Z,99155.44
2018-06-11T12:24:41.654Z,99155.70
2018-06-11T12:27:10.325Z,99148.37
2018-06-11T12:29:38.774Z,99151.67
2018-06-11T12:32:07.182Z,99142.30
2018-06-11T12:34:35.770Z,99142.00
2018-06-11T12:37:04.055Z,99140.22
2018-06-11T12:39:32.667Z,99135.22
2018-06-11T12:42:01.167Z,99136.98
2018-06-11T12:44:29.710Z,99136.70
2018-06-11T12:46:58.174Z,99134.70
2018-06-11T12:49:26.656Z,99138.14
2018-06-11T12:51:55.343Z,99133.66
2018-06-11T12:54:23.921Z,99132.72
2018-06-11T12:56:52.410Z,99123.05
2018-06-11T12:59:20.892Z,99122.84
2018-06-11T13:01:49.511Z,99125.43
2018-06-11T13:04:18.030Z,99121.69
2018-06-11T13:06:46.599Z,99118.98
2018-06-11T13:09:15.273Z,99116.88
2018-06-11T13:11:43.497Z,99111.78
2018-06-11T13:14:11.957Z,99112.31
2018-06-11T13:16:40.347Z,99115.44
2018-06-11T13:19:08.666Z,99112.01
2018-06-11T13:21:37.281Z,99103.54
2018-06-11T13:24:05.728Z,99104.72
2018-06-11T13:26:37.618Z,99100.75
2018-06-11T13:29:06.253Z,99099.08
2018-06-11T13:31:34.836Z,99098.86
2018-06-11T13:34:03.284Z,99102.61
2018-06-11T13:36:31.905Z,99112.92
2018-06-11T13:39:00.186Z,99101.94
2018-06-11T13:41:28.777Z,99104.28
2018-06-11T13:43:57.351Z,99105.02
2018-06-11T13:46:25.871Z,99105.22
2018-06-11T13:48:54.206Z,99106.35
2018-06-11T13:51:22.719Z,99103.44
2018-06-11T13:53:51.373Z,99101.87
2018-06-11T13:56:19.956Z,99097.77
2018-06-11T13:58:48.539Z,99091.45
2018-06-11T14:01:17.042Z,99094.59
2018-06-11T14:03:45.578Z,99095.73
2018-06-11T14:06:14.078Z,99096.70
2018-06-11T14:08:42.359Z,99087.09
2018-06-11T14:11:10.845Z,99078.22
2018-06-11T14:13:39.230Z,99082.03
2018-06-11T14:16:07.723Z,99071.95
2018-06-11T14:18:36.010Z,99077.77
2018-06-11T14:21:04.577Z,99074.61
2018-06-11T14:24:00.958Z,99072.19
2018-06-11T14:26:29.587Z,99061.77
2018-06-11T14:28:57.994Z,99061.83
2018-06-11T14:31:26.464Z,99067.99
2018-06-11T14:33:54.841Z,99064.12
2018-06-11T14:36:23.233Z,99066.50
2018-06-11T14:38:51.699Z,99059.57
2018-06-11T14:41:20.146Z,99063.48
2018-06-11T14:43:48.797Z,99056.09
2018-06-11T14:46:17.238Z,99058.43
2018-06-11T14:48:45.786Z,99066.73
2018-06-11T14:51:13.966Z,99060.86
2018-06-11T14:53:42.390Z,99051.16
2018-06-11T14:56:10.835Z,99056.44
2018-06-11T14:58:39.372Z,99054.70
2018-06-11T15:01:07.977Z,99052.41
2018-06-11T15:03:36.312Z,99049.86
2018-06-11T15:06:04.710Z,99054.93
2018-06-11T15:08:33.391Z,99051.88
2018-06-11T15:11:01.805Z,99055.18
2018-06-11T15:13:30.281Z,99046.56
2018-06-11T15:15:58.804Z,99046.05
2018-06-11T15:18:27.085Z,99053.23
2018-06-11T15:20:55.534Z,99050.42
2018-06-11T15:23:23.864Z,99049.18
2018-06-11T15:25:52.330Z,99048.87
2018-06-11T15:28:20.703Z,99058.97
2018-06-11T15:30:49.186Z,99051.05
2018-06-11T15:33:17.574Z,99057.46
2018-06-11T15:35:46.901Z,99055.39
2018-06-11T15:38:15.165Z,99049.66
2018-06-11T15:40:43.554Z,99061.02
2018-06-11T15:43:11.561Z,99067.05
2018-06-11T15:45:40.135Z,99059.61
2018-06-11T15:48:08.519Z,99056.44
2018-06-11T15:50:38.123Z,99038.94
2018-06-11T15:53:06.522Z,99052.31
2018-06-11T15:55:34.846Z,99058.64
2018-06-11T15:58:05.416Z,99049.48
2018-06-11T16:00:41.487Z,99050.75
2018-06-11T16:03:13.329Z,99049.20
2018-06-11T16:05:41.797Z,99048.14
2018-06-11T16:08:10.260Z,99050.63
2018-06-11T16:10:38.709Z,99041.97
2018-06-11T16:13:07.102Z,99043.13
2018-06-11T16:15:35.466Z,99041.67
2018-06-11T16:18:04.005Z,99044.69
2018-06-11T16:20:32.609Z,99044.91
2018-06-11T16:23:01.014Z,99040.25
2018-06-11T16:25:29.416Z,99033.79
2018-06-11T16:27:57.816Z,99044.04
2018-06-11T16:30:27.197Z,99041.48
2018-06-11T16:32:55.657Z,99038.04
2018-06-11T16:35:24.147Z,99035.38
2018-06-11T16:37:52.475Z,99039.81
2018-06-11T16:40:21.028Z,99040.25
2018-06-11T16:42:49.299Z,99046.41
2018-06-11T16:45:17.775Z,99045.16
2018-06-11T16:47:46.258Z,99038.79
2018-06-11T16:50:14.618Z,99044.39
2018-06-11T16:52:43.114Z,99033.67
2018-06-11T16:55:12.341Z,99044.51
2018-06-11T16:57:40.916Z,99044.92
2018-06-11T17:00:09.304Z,99047.02
2018-06-11T17:02:37.662Z,99046.91
2018-06-11T17:05:06.274Z,99044.59
2018-06-11T17:07:34.534Z,99045.73
2018-06-11T17:10:03.473Z,99042.81
2018-06-11T17:12:31.996Z,99044.59
2018-06-11T17:15:01.249Z,99041.27
2018-06-11T17:17:29.765Z,99046.28
2018-06-11T17:19:58.292Z,99043.73
2018-06-11T17:22:26.945Z,99048.30
2018-06-11T17:24:55.525Z,99043.14
2018-06-11T17:27:23.949Z,99042.70
2018-06-11T17:29:52.893Z,99036.45
2018-06-11T17:32:21.300Z,99043.23
2018-06-11T17:34:49.628Z,99031.00
2018-06-11T17:37:18.042Z,99037.00
2018-06-11T17:39:46.406Z,99031.29
2018-06-11T17:42:14.729Z,99033.13
2018-06-11T17:44:43.100Z,99041.69
2018-06-11T17:47:11.258Z,99042.90
2018-06-11T17:49:39.674Z,99038.95
2018-06-11T17:52:08.063Z,99046.22
2018-06-11T17:54:36.626Z,99049.20
2018-06-11T17:57:05.050Z,99047.60
2018-06-11T17:59:33.242Z,99051.48
2018-06-11T18:02:01.622Z,99057.00
2018-06-11T18:04:30.099Z,99053.53
2018-06-11T18:06:58.409Z,99053.22
2018-06-11T18:09:27.472Z,99059.96
2018-06-11T18:11:59.735Z,99058.12
2018-06-11T18:14:29.702Z,99065.53
2018-06-11T18:16:58.276Z,99070.89
2018-06-11T18:19:27.602Z,99072.11
2018-06-11T18:21:58.371Z,99076.31
2018-06-11T18:24:27.334Z,99077.69
2018-06-11T18:26:55.327Z,99087.61
2018-06-11T18:29:23.868Z,99092.57
2018-06-11T18:31:52.337Z,99092.13
2018-06-11T18:34:20.850Z,99088.53
2018-06-11T18:36:49.365Z,99088.16
2018-06-11T18:39:18.075Z,99098.27
2018-06-11T18:41:46.538Z,99105.41
2018-06-11T18:44:15.026Z,99104.67
2018-06-11T18:46:43.561Z,99110.09
2018-06-11T18:49:11.890Z,99112.65
2018-06-11T18:51:40.674Z,99115.75
2018-06-11T18:54:09.865Z,99121.30
2018-06-11T18:56:38.280Z,99118.94
2018-06-11T18:59:06.625Z,99129.94
2018-06-11T19:01:35.054Z,99132.58
2018-06-11T19:04:03.623Z,99135.08
2018-06-11T19:06:31.966Z,99132.19
2018-06-11T19:09:00.454Z,99134.56
2018-06-11T19:11:29.238Z,99138.80
2018-06-11T19:13:57.539Z,99142.45
2018-06-11T19:16:26.813Z,99153.14
2018-06-11T19:18:54.874Z,99151.58
2018-06-11T19:21:23.167Z,99159.03
2018-06-11T19:23:51.653Z,99158.00
2018-06-11T19:26:20.020Z,99152.16
2018-06-11T19:28:48.514Z,99171.30
2018-06-11T19:31:17.013Z,99177.14
2018-06-11T19:33:45.288Z,99184.87
2018-06-11T19:36:13.667Z,99191.61
2018-06-11T19:38:43.690Z,99189.56
2018-06-11T19:41:11.757Z,99191.95
2018-06-11T19:43:39.953Z,99190.48
2018-06-11T19:46:08.586Z,99190.27
2018-06-11T19:48:36.977Z,99197.34
2018-06-11T19:51:05.413Z,99197.35
2018-06-11T19:53:33.960Z,99196.11
2018-06-11T19:56:02.295Z,99197.35
2018-06-11T19:58:30.590Z,99198.09
2018-06-11T20:00:58.968Z,99207.68
2018-06-11T20:03:27.350Z,99203.34
2018-06-11T20:05:55.934Z,99208.05
2018-06-11T20:08:24.375Z,99206.39
2018-06-11T20:10:52.699Z,99204.48
2018-06-11T20:13:21.201Z,99200.61
2018-06-11T20:15:49.723Z,99208.56
2018-06-11T20:18:18.014Z,99213.80
2018-06-11T20:20:46.281Z,99210.91
2018-06-11T20:23:14.721Z,99212.95
2018-06-11T20:25:43.096Z,99214.48
2018-06-11T20:28:12.262Z,99209.26
2018-06-11T20:30:40.548Z,99210.10
2018-06-11T20:33:09.130Z,99213.38
2018-06-11T20:35:37.614Z,99207.72
2018-06-11T20:38:05.972Z,99211.75
2018-06-11T20:40:34.572Z,99210.03
2018-06-11T20:43:03.183Z,99208.95
2018-06-11T20:45:31.570Z,99216.17
2018-06-11T20:48:00.023Z,99214.86
2018-06-11T20:50:28.534Z,99212.79
2018-06-11T20:52:56.973Z,99216.35
2018-06-11T20:55:26.230Z,99226.13
2018-06-11T20:57:54.565Z,99230.06
2018-06-11T21:00:22.926Z,99228.34
2018-06-11T21:02:51.327Z,99220.17
2018-06-11T21:05:19.630Z,99227.92
2018-06-11T21:07:48.077Z,99220.49
2018-06-11T21:10:20.225Z,99225.87
2018-06-11T21:12:48.621Z,99225.55
2018-06-11T21:15:17.101Z,99227.12
2018-06-11T21:17:45.286Z,99227.83
2018-06-11T21:20:13.793Z,99225.95
2018-06-11T21:22:42.350Z,99229.31
2018-06-11T21:25:10.815Z,99223.11
2018-06-11T21:27:39.133Z,99229.30
2018-06-11T21:30:07.670Z,99231.52
2018-06-11T21:32:36.111Z,99234.03
2018-06-11T21:35:04.583Z,99238.72
2018-06-11T21:37:33.149Z,99235.06
2018-06-11T21:40:01.616Z,99235.89
2018-06-11T21:42:29.993Z,99242.61
2018-06-11T21:44:58.477Z,99246.48
2018-06-11T21:47:26.862Z,99244.32
2018-06-11T21:49:55.460Z,99246.47
2018-06-11T21:52:24.098Z,99242.44
2018-06-11T21:54:52.398Z,99247.97
2018-06-11T21:57:20.891Z,99239.27
2018-06-11T21:59:49.286Z,99234.59
2018-06-11T22:02:17.754Z,99233.58
2018-06-11T22:04:46.213Z,99234.42
2018-06-11T22:07:14.614Z,99232.06
2018-06-11T22:09:43.230Z,99223.17
2018-06-11T22:12:11.695Z,99225.36
2018-06-11T22:14:40.074Z,99218.98
2018-06-11T22:17:08.634Z,99210.08
2018-06-11T22:19:37.009Z,99211.24
2018-06-11T22:22:05.493Z,99209.23
2018-06-11T22:24:33.976Z,99204.88
2018-06-11T22:27:02.250Z,99204.37
2018-06-11T22:29:30.657Z,99203.89
2018-06-11T22:31:58.985Z,99196.49
2018-06-11T22:34:27.422Z,99198.02
2018-06-11T22:36:55.765Z,99194.66
2018-06-11T22:39:24.171Z,99190.14
2018-06-11T22:41:52.326Z,99194.50
2018-06-11T22:44:20.865Z,99196.34
2018-06-11T22:46:49.177Z,99201.70
2018-06-11T22:49:17.430Z,99200.22
2018-06-11T22:51:45.954Z,99198.86
2018-06-11T22:54:14.512Z,99197.36
2018-06-11T22:56:42.928Z,99190.98
2018-06-11T22:59:11.530Z,99181.27
2018-06-11T23:01:40.069Z,99180.09
2018-06-11T23:04:08.448Z,99174.55
2018-06-11T23:06:36.845Z,99180.74
2018-06-11T23:09:06.897Z,99175.85
2018-06-11T23:11:35.451Z,99186.06
2018-06-11T23:14:04.026Z,99178.03
2018-06-11T23:16:32.389Z,99181.20
2018-06-11T23:19:00.906Z,99175.84
2018-06-11T23:21:29.384Z,99175.51
2018-06-11T23:23:58.054Z,99171.66
2018-06-11T23:26:27.144Z,99163.80
2018-06-11T23:28:55.721Z,99166.63
2018-06-11T23:31:24.141Z,99163.92
2018-06-11T23:33:52.604Z,99166.28
2018-06-11T23:36:20.970Z,99164.80
2018-06-11T23:38:49.343Z,99167.42
2018-06-11T23:41:17.952Z,99161.26
2018-06-11T23:43:46.304Z,99162.28
2018-06-11T23:46:14.845Z,99159.59
2018-06-11T23:48:43.165Z,99155.73
2018-06-11T23:51:11.553Z,99168.07
2018-06-11T23:53:40.134Z,99157.56
2018-06-11T23:56:08.506Z,99160.95
2018-06-11T23:58:36.890Z,99160.67
